createdAt,value
2017-11-19T00:02:18.641Z,28.40
2017-11-19T00:04:46.213Z,28.40
2017-11-19T00:07:13.771Z,28.40
2017-11-19T00:09:41.434Z,28.40
2017-11-19T00:12:08.989Z,28.90
2017-11-19T00:14:36.594Z,28.40
2017-11-19T00:17:04.931Z,28.40
2017-11-19T00:19:32.512Z,28.40
2017-11-19T00:22:00.119Z,28.40
2017-11-19T00:24:27.855Z,28.40
2017-11-19T00:26:56.169Z,28.40
2017-11-19T00:29:23.716Z,28.90
2017-11-19T00:31:51.378Z,28.40
2017-11-19T00:34:19.051Z,28.40
2017-11-19T00:36:46.624Z,28.40
2017-11-19T00:39:14.168Z,28.40
2017-11-19T00:41:41.728Z,28.40
2017-11-19T00:44:09.288Z,28.40
2017-11-19T00:46:37.035Z,28.40
2017-11-19T00:49:04.591Z,28.40
2017-11-19T00:51:33.075Z,28.40
2017-11-19T00:54:00.687Z,28.40
2017-11-19T00:56:28.424Z,28.40
2017-11-19T00:58:55.993Z,28.40
2017-11-19T01:01:23.573Z,28.40
2017-11-19T01:03:51.171Z,28.40
2017-11-19T01:06:19.505Z,28.40
2017-11-19T01:08:47.171Z,28.40
2017-11-19T01:11:14.723Z,28.40
2017-11-19T01:13:42.414Z,28.40
2017-11-19T01:16:10.014Z,28.40
2017-11-19T01:18:37.674Z,28.90
2017-11-19T01:21:05.257Z,28.40
2017-11-19T01:23:32.853Z,28.40
2017-11-19T01:26:00.443Z,28.40
2017-11-19T01:28:27.953Z,28.80
2017-11-19T01:30:55.616Z,28.40
2017-11-19T01:33:23.184Z,28.40
2017-11-19T01:35:50.913Z,28.40
2017-11-19T01:38:18.505Z,28.40
2017-11-19T01:40:46.056Z,28.40
2017-11-19T01:43:13.636Z,28.40
2017-11-19T01:45:41.194Z,28.40
2017-11-19T01:48:08.783Z,28.30
2017-11-19T01:50:36.468Z,28.20
2017-11-19T01:53:04.083Z,28.30
2017-11-19T01:55:32.416Z,27.80
2017-11-19T01:58:00.010Z,28.30
2017-11-19T02:00:27.565Z,28.30
2017-11-19T02:02:55.148Z,28.30
2017-11-19T02:05:23.491Z,28.30
2017-11-19T02:07:51.081Z,28.30
2017-11-19T02:10:19.413Z,28.30
2017-11-19T02:12:47.002Z,28.30
2017-11-19T02:15:14.571Z,28.30
2017-11-19T02:17:42.915Z,28.50
2017-11-19T02:20:10.475Z,28.60
2017-11-19T02:22:38.077Z,28.90
2017-11-19T02:25:06.573Z,28.80
2017-11-19T02:27:34.872Z,28.80
2017-11-19T02:30:02.465Z,28.80
2017-11-19T02:32:30.013Z,29.30
2017-11-19T02:34:57.671Z,28.80
2017-11-19T02:37:25.259Z,28.40
2017-11-19T02:39:52.892Z,28.30
2017-11-19T02:42:21.271Z,28.30
2017-11-19T02:44:48.847Z,28.30
2017-11-19T02:47:16.421Z,28.40
2017-11-19T02:49:44.108Z,28.50
2017-11-19T02:52:12.463Z,28.40
2017-11-19T02:54:40.045Z,28.40
2017-11-19T02:57:08.414Z,28.50
2017-11-19T02:59:36.856Z,28.30
2017-11-19T03:02:04.422Z,28.30
2017-11-19T03:04:31.980Z,28.30
2017-11-19T03:06:59.529Z,28.30
2017-11-19T03:09:27.112Z,28.30
2017-11-19T03:11:55.495Z,28.30
2017-11-19T03:14:23.152Z,28.30
2017-11-19T03:16:50.729Z,28.30
2017-11-19T03:19:19.038Z,28.40
2017-11-19T03:21:46.630Z,28.60
2017-11-19T03:24:14.192Z,28.60
2017-11-19T03:26:41.898Z,28.60
2017-11-19T03:29:10.221Z,28.70
2017-11-19T03:31:37.800Z,28.60
2017-11-19T03:34:05.372Z,28.80
2017-11-19T03:36:32.933Z,28.70
2017-11-19T03:39:00.715Z,28.80
2017-11-19T03:41:29.051Z,28.90
2017-11-19T03:43:56.624Z,29.00
2017-11-19T03:46:24.224Z,29.10
2017-11-19T03:48:52.016Z,29.10
2017-11-19T03:51:19.573Z,28.90
2017-11-19T03:53:47.153Z,29.20
2017-11-19T03:56:14.756Z,29.10
2017-11-19T03:58:43.193Z,29.10
2017-11-19T04:01:10.757Z,29.10
2017-11-19T04:03:38.339Z,29.10
2017-11-19T04:06:06.089Z,29.10
2017-11-19T04:08:33.759Z,29.10
2017-11-19T04:11:01.326Z,29.00
2017-11-19T04:13:28.936Z,28.90
2017-11-19T04:15:56.506Z,28.50
2017-11-19T04:18:24.171Z,28.70
2017-11-19T04:20:51.762Z,28.70
2017-11-19T04:23:20.154Z,28.70
2017-11-19T04:25:48.489Z,28.30
2017-11-19T04:28:16.192Z,28.50
2017-11-19T04:30:43.774Z,28.70
2017-11-19T04:33:11.472Z,28.40
2017-11-19T04:35:39.034Z,28.30
2017-11-19T04:38:06.607Z,28.30
2017-11-19T04:40:34.164Z,28.20
2017-11-19T04:43:01.847Z,28.30
2017-11-19T04:45:30.912Z,28.30
2017-11-19T04:47:58.480Z,28.20
2017-11-19T04:50:26.058Z,28.30
2017-11-19T04:52:53.754Z,28.20
2017-11-19T04:55:21.337Z,28.30
2017-11-19T04:57:48.907Z,28.20
2017-11-19T05:00:16.665Z,28.20
2017-11-19T05:02:44.214Z,28.20
2017-11-19T05:05:11.802Z,28.70
2017-11-19T05:07:39.367Z,28.20
2017-11-19T05:10:06.919Z,28.30
2017-11-19T05:12:34.612Z,28.20
2017-11-19T05:15:02.167Z,28.30
2017-11-19T05:17:29.754Z,28.40
2017-11-19T05:19:58.092Z,28.70
2017-11-19T05:22:25.674Z,28.80
2017-11-19T05:24:54.029Z,28.60
2017-11-19T05:27:21.589Z,28.80
2017-11-19T05:29:49.153Z,28.70
2017-11-19T05:32:16.729Z,28.80
2017-11-19T05:34:45.107Z,28.70
2017-11-19T05:37:12.690Z,28.80
2017-11-19T05:39:40.238Z,29.00
2017-11-19T05:42:08.605Z,28.80
2017-11-19T05:44:36.146Z,28.80
2017-11-19T05:47:03.710Z,28.70
2017-11-19T05:49:31.296Z,28.50
2017-11-19T05:51:59.619Z,28.30
2017-11-19T05:54:27.370Z,28.50
2017-11-19T05:56:54.918Z,28.20
2017-11-19T05:59:22.450Z,28.20
2017-11-19T06:01:50.809Z,28.20
2017-11-19T06:04:18.360Z,28.20
2017-11-19T06:06:45.907Z,28.20
2017-11-19T06:09:13.632Z,28.30
2017-11-19T06:11:41.191Z,28.20
2017-11-19T06:14:08.767Z,28.20
2017-11-19T06:16:36.330Z,28.20
2017-11-19T06:19:03.880Z,28.20
2017-11-19T06:21:31.438Z,28.20
2017-11-19T06:23:58.994Z,28.20
2017-11-19T06:26:26.788Z,28.20
2017-11-19T06:28:54.392Z,28.20
2017-11-19T06:31:22.700Z,28.20
2017-11-19T06:33:50.238Z,28.20
2017-11-19T06:36:18.579Z,28.20
2017-11-19T06:38:46.162Z,28.20
2017-11-19T06:41:14.533Z,29.80
2017-11-19T06:43:42.079Z,29.80
2017-11-19T06:46:09.670Z,31.70
2017-11-19T06:48:37.327Z,33.60
2017-11-19T06:51:05.638Z,32.30
2017-11-19T06:53:33.249Z,32.30
2017-11-19T06:56:00.817Z,32.10
2017-11-19T06:58:29.172Z,30.70
2017-11-19T07:00:56.825Z,30.70
2017-11-19T07:03:24.403Z,31.70
2017-11-19T07:05:52.016Z,34.20
2017-11-19T07:08:19.577Z,35.40
2017-11-19T07:10:47.267Z,38.50
2017-11-19T07:13:14.865Z,38.90
2017-11-19T07:15:43.216Z,37.60
2017-11-19T07:18:10.788Z,37.60
2017-11-19T07:20:38.337Z,36.60
2017-11-19T07:23:05.937Z,36.00
2017-11-19T07:25:33.490Z,37.70
2017-11-19T07:28:02.080Z,35.90
2017-11-19T07:30:29.625Z,36.00
2017-11-19T07:32:57.975Z,35.50
2017-11-19T07:35:25.698Z,35.50
2017-11-19T07:37:53.255Z,34.30
2017-11-19T07:40:20.835Z,33.90
2017-11-19T07:42:48.456Z,33.90
2017-11-19T07:45:16.759Z,33.90
2017-11-19T07:47:44.346Z,33.90
2017-11-19T07:50:11.931Z,33.90
2017-11-19T07:52:39.459Z,33.90
2017-11-19T07:55:07.069Z,35.30
2017-11-19T07:57:35.375Z,36.20
2017-11-19T08:00:02.952Z,36.10
2017-11-19T08:02:30.603Z,34.80
2017-11-19T08:04:58.156Z,34.60
2017-11-19T08:07:25.731Z,34.00
2017-11-19T08:09:53.321Z,34.50
2017-11-19T08:12:21.849Z,33.90
2017-11-19T08:14:49.495Z,33.90
2017-11-19T08:17:17.060Z,34.10
2017-11-19T08:19:44.715Z,35.10
2017-11-19T08:22:12.279Z,35.90
2017-11-19T08:24:39.863Z,36.70
2017-11-19T08:27:07.435Z,36.80
2017-11-19T08:29:35.036Z,36.50
2017-11-19T08:32:02.639Z,36.60
2017-11-19T08:34:30.209Z,36.20
2017-11-19T08:36:57.761Z,36.10
2017-11-19T08:39:25.341Z,35.80
2017-11-19T08:41:52.939Z,35.30
2017-11-19T08:44:21.290Z,35.70
2017-11-19T08:46:48.871Z,35.80
2017-11-19T08:49:16.557Z,35.30
2017-11-19T08:51:44.139Z,35.30
2017-11-19T08:54:11.753Z,35.70
2017-11-19T08:56:39.314Z,35.80
2017-11-19T08:59:07.663Z,35.60
2017-11-19T09:01:35.277Z,35.60
2017-11-19T09:04:02.820Z,35.90
2017-11-19T09:06:31.191Z,35.50
2017-11-19T09:08:58.768Z,35.40
2017-11-19T09:11:27.111Z,35.50
2017-11-19T09:13:54.677Z,35.60
2017-11-19T09:16:22.255Z,35.50
2017-11-19T09:18:50.661Z,35.80
2017-11-19T09:21:18.238Z,35.80
2017-11-19T09:23:45.853Z,35.60
2017-11-19T09:26:14.203Z,35.40
2017-11-19T09:28:41.802Z,35.40
2017-11-19T09:31:10.140Z,35.10
2017-11-19T09:33:37.713Z,35.10
2017-11-19T09:36:05.485Z,34.90
2017-11-19T09:38:33.070Z,34.90
2017-11-19T09:41:00.653Z,34.20
2017-11-19T09:43:28.233Z,34.10
2017-11-19T09:45:55.774Z,34.10
2017-11-19T09:48:23.492Z,33.10
2017-11-19T09:50:51.823Z,37.80
2017-11-19T09:53:19.805Z,37.50
2017-11-19T09:55:47.445Z,37.20
2017-11-19T09:58:15.025Z,34.10
2017-11-19T10:00:42.687Z,30.90
2017-11-19T10:03:10.322Z,31.50
2017-11-19T10:05:38.249Z,30.70
2017-11-19T10:08:06.601Z,28.60
2017-11-19T10:10:34.223Z,28.60
2017-11-19T10:13:01.765Z,28.50
2017-11-19T10:15:30.202Z,28.50
2017-11-19T10:17:57.838Z,28.50
2017-11-19T10:20:25.592Z,28.50
2017-11-19T10:22:53.168Z,28.50
2017-11-19T10:25:20.730Z,27.40
2017-11-19T10:27:48.342Z,27.80
2017-11-19T10:30:16.683Z,28.40
2017-11-19T10:32:44.312Z,28.40
2017-11-19T10:35:11.867Z,27.60
2017-11-19T10:37:39.479Z,28.00
2017-11-19T10:40:07.826Z,28.30
2017-11-19T10:42:35.414Z,28.50
2017-11-19T10:45:02.981Z,26.40
2017-11-19T10:47:31.328Z,26.20
2017-11-19T10:49:59.115Z,26.10
2017-11-19T10:52:27.556Z,25.40
2017-11-19T10:54:55.210Z,25.40
2017-11-19T10:57:22.988Z,25.30
2017-11-19T10:59:50.586Z,25.00
2017-11-19T11:02:18.144Z,25.10
2017-11-19T11:04:45.766Z,24.80
2017-11-19T11:07:13.320Z,25.30
2017-11-19T11:09:40.895Z,25.10
2017-11-19T11:12:08.533Z,24.60
2017-11-19T11:14:36.857Z,25.10
2017-11-19T11:17:04.404Z,25.10
2017-11-19T11:19:31.996Z,24.60
2017-11-19T11:22:00.355Z,24.30
2017-11-19T11:24:27.933Z,24.40
2017-11-19T11:26:56.300Z,24.40
2017-11-19T11:29:23.864Z,24.40
2017-11-19T11:31:51.452Z,24.30
2017-11-19T11:34:19.810Z,23.60
2017-11-19T11:36:48.170Z,23.60
2017-11-19T11:39:15.899Z,23.60
2017-11-19T11:41:43.512Z,23.60
2017-11-19T11:44:11.908Z,23.50
2017-11-19T11:46:39.482Z,23.60
2017-11-19T11:49:07.018Z,23.60
2017-11-19T11:51:35.387Z,23.50
2017-11-19T11:54:03.806Z,23.70
2017-11-19T11:56:31.378Z,23.80
2017-11-19T11:58:58.945Z,24.30
2017-11-19T12:01:26.538Z,24.70
2017-11-19T12:03:54.152Z,23.90
2017-11-19T12:06:21.759Z,23.60
2017-11-19T12:08:50.084Z,23.50
2017-11-19T12:11:17.624Z,23.50
2017-11-19T12:13:45.193Z,23.50
2017-11-19T12:16:12.733Z,23.50
2017-11-19T12:18:40.405Z,24.20
2017-11-19T12:21:08.016Z,23.50
2017-11-19T12:23:35.726Z,23.50
2017-11-19T12:26:04.156Z,23.50
2017-11-19T12:28:31.748Z,23.40
2017-11-19T12:31:00.081Z,24.30
2017-11-19T12:33:27.661Z,24.40
2017-11-19T12:35:56.946Z,23.50
2017-11-19T12:38:24.552Z,23.40
2017-11-19T12:40:54.706Z,23.40
2017-11-19T12:43:22.312Z,23.40
2017-11-19T12:45:50.074Z,23.40
2017-11-19T12:48:17.622Z,23.40
2017-11-19T12:50:45.222Z,23.40
2017-11-19T12:53:12.820Z,23.40
2017-11-19T12:55:40.384Z,23.40
2017-11-19T12:58:07.991Z,23.40
2017-11-19T13:00:36.417Z,23.40
2017-11-19T13:03:04.108Z,23.40
2017-11-19T13:05:31.699Z,23.40
2017-11-19T13:08:00.027Z,23.40
2017-11-19T13:10:27.583Z,23.30
2017-11-19T13:12:55.316Z,23.40
2017-11-19T13:15:24.078Z,23.30
2017-11-19T13:17:52.412Z,23.40
2017-11-19T13:20:20.010Z,23.30
2017-11-19T13:22:47.565Z,23.30
2017-11-19T13:25:15.912Z,23.40
2017-11-19T13:27:43.858Z,23.30
2017-11-19T13:30:11.401Z,23.20
2017-11-19T13:32:39.070Z,23.20
2017-11-19T13:35:07.404Z,23.30
2017-11-19T13:37:35.033Z,23.20
2017-11-19T13:40:02.627Z,23.20
2017-11-19T13:42:30.237Z,23.20
2017-11-19T13:44:57.834Z,23.20
2017-11-19T13:47:26.219Z,22.80
2017-11-19T13:49:53.794Z,23.20
2017-11-19T13:52:21.498Z,23.20
2017-11-19T13:54:49.075Z,23.20
2017-11-19T13:57:16.644Z,23.20
2017-11-19T13:59:44.262Z,23.20
2017-11-19T14:02:11.838Z,23.20
2017-11-19T14:04:39.394Z,23.20
2017-11-19T14:07:06.990Z,23.20
2017-11-19T14:09:34.591Z,23.20
2017-11-19T14:12:02.932Z,23.20
2017-11-19T14:14:31.279Z,22.90
2017-11-19T14:16:58.932Z,23.20
2017-11-19T14:19:26.477Z,23.20
2017-11-19T14:21:54.103Z,23.20
2017-11-19T14:24:21.729Z,23.20
2017-11-19T14:26:49.430Z,23.10
2017-11-19T14:29:17.035Z,23.20
2017-11-19T14:31:44.607Z,23.20
2017-11-19T14:34:12.155Z,23.20
2017-11-19T14:36:39.733Z,23.20
2017-11-19T14:39:07.325Z,23.20
2017-11-19T14:41:35.655Z,23.90
2017-11-19T14:44:03.327Z,24.00
2017-11-19T14:46:31.023Z,24.00
2017-11-19T14:48:58.620Z,24.40
2017-11-19T14:51:26.299Z,24.20
2017-11-19T14:53:53.894Z,24.40
2017-11-19T14:56:21.739Z,24.50
2017-11-19T14:58:49.306Z,24.90
2017-11-19T15:01:16.872Z,24.80
2017-11-19T15:03:44.457Z,24.70
2017-11-19T15:06:12.003Z,24.40
2017-11-19T15:08:39.664Z,24.50
2017-11-19T15:11:08.740Z,24.70
2017-11-19T15:13:36.561Z,24.70
2017-11-19T15:16:05.045Z,24.50
2017-11-19T15:18:32.656Z,24.60
2017-11-19T15:21:00.250Z,24.90
2017-11-19T15:23:28.645Z,24.60
2017-11-19T15:25:56.995Z,24.40
2017-11-19T15:28:24.579Z,24.50
2017-11-19T15:30:52.915Z,24.80
2017-11-19T15:33:20.663Z,24.70
2017-11-19T15:35:48.227Z,24.50
2017-11-19T15:38:15.853Z,24.40
2017-11-19T15:40:43.439Z,24.70
2017-11-19T15:43:11.832Z,24.70
2017-11-19T15:45:39.405Z,24.80
2017-11-19T15:48:07.055Z,24.80
2017-11-19T15:50:34.655Z,25.00
2017-11-19T15:53:03.097Z,25.30
2017-11-19T15:55:30.754Z,24.90
2017-11-19T15:57:58.379Z,24.70
2017-11-19T16:00:25.967Z,24.70
2017-11-19T16:02:53.551Z,24.10
2017-11-19T16:05:21.125Z,24.30
2017-11-19T16:07:49.508Z,24.60
2017-11-19T16:10:17.839Z,23.80
2017-11-19T16:12:45.407Z,23.80
2017-11-19T16:15:13.046Z,23.30
2017-11-19T16:17:40.758Z,24.10
2017-11-19T16:20:08.969Z,24.20
2017-11-19T16:22:36.679Z,24.50
2017-11-19T16:25:04.446Z,24.40
2017-11-19T16:27:32.081Z,24.20
2017-11-19T16:29:59.681Z,23.20
2017-11-19T16:32:28.089Z,23.20
2017-11-19T16:34:55.708Z,23.20
2017-11-19T16:37:23.463Z,23.30
2017-11-19T16:39:51.812Z,23.40
2017-11-19T16:42:19.395Z,23.40
2017-11-19T16:44:47.724Z,23.40
2017-11-19T16:47:16.075Z,23.50
2017-11-19T16:49:43.620Z,23.50
2017-11-19T16:52:11.348Z,23.50
2017-11-19T16:57:41.527Z,24.30
2017-11-19T17:00:09.907Z,26.10
2017-11-19T17:02:38.296Z,27.20
2017-11-19T17:05:06.100Z,27.10
2017-11-19T17:07:33.671Z,29.30
2017-11-19T17:10:01.253Z,29.10
2017-11-19T17:12:28.850Z,33.70
2017-11-19T17:14:56.554Z,37.00
2017-11-19T17:17:24.173Z,36.70
2017-11-19T17:19:51.956Z,28.40
2017-11-19T17:22:19.545Z,28.40
2017-11-19T17:24:47.322Z,28.10
2017-11-19T17:27:14.990Z,27.20
2017-11-19T17:29:43.375Z,26.40
2017-11-19T17:32:11.701Z,26.20
2017-11-19T17:34:39.339Z,26.20
2017-11-19T17:37:06.932Z,25.90
2017-11-19T17:39:34.535Z,25.90
2017-11-19T17:42:02.861Z,25.80
2017-11-19T17:44:30.486Z,25.80
2017-11-19T17:46:58.841Z,26.30
2017-11-19T17:49:27.243Z,25.80
2017-11-19T17:51:54.867Z,25.90
2017-11-19T17:54:22.517Z,25.80
2017-11-19T17:56:50.541Z,25.80
2017-11-19T17:59:18.878Z,25.70
2017-11-19T18:01:46.503Z,25.70
2017-11-19T18:04:14.159Z,25.70
2017-11-19T18:06:41.741Z,25.70
2017-11-19T18:09:09.312Z,25.80
2017-11-19T18:11:36.891Z,25.80
2017-11-19T18:14:04.510Z,25.70
2017-11-19T18:16:32.162Z,26.40
2017-11-19T18:18:59.747Z,25.70
2017-11-19T18:21:27.350Z,25.90
2017-11-19T18:23:55.798Z,25.70
2017-11-19T18:26:23.397Z,25.70
2017-11-19T18:28:50.973Z,25.70
2017-11-19T18:31:18.588Z,25.90
2017-11-19T18:33:46.159Z,25.90
2017-11-19T18:36:14.652Z,27.10
2017-11-19T18:38:43.094Z,26.60
2017-11-19T18:41:10.691Z,26.60
2017-11-19T18:43:39.022Z,26.70
2017-11-19T18:46:06.732Z,26.70
2017-11-19T18:48:35.088Z,27.10
2017-11-19T18:51:02.711Z,27.10
2017-11-19T18:53:30.332Z,27.10
2017-11-19T18:55:59.630Z,27.00
2017-11-19T18:58:27.986Z,27.10
2017-11-19T19:00:55.597Z,27.10
2017-11-19T19:03:23.260Z,27.10
2017-11-19T19:05:50.874Z,27.10
2017-11-19T19:08:18.458Z,27.20
2017-11-19T19:10:46.813Z,27.10
2017-11-19T19:13:14.439Z,27.10
2017-11-19T19:15:42.068Z,27.10
2017-11-19T19:18:09.683Z,27.30
2017-11-19T19:20:37.316Z,27.20
2017-11-19T19:23:04.952Z,28.50
2017-11-19T19:25:32.751Z,28.50
2017-11-19T19:28:00.342Z,28.50
2017-11-19T19:30:27.912Z,28.50
2017-11-19T19:32:56.338Z,28.60
2017-11-19T19:35:23.920Z,28.50
2017-11-19T19:37:51.526Z,28.60
2017-11-19T19:40:19.858Z,29.00
2017-11-19T19:42:47.512Z,29.00
2017-11-19T19:45:15.160Z,28.90
2017-11-19T19:47:42.778Z,29.20
2017-11-19T19:50:11.198Z,29.20
2017-11-19T19:52:38.792Z,29.30
2017-11-19T19:55:06.402Z,29.30
2017-11-19T19:57:34.496Z,29.30
2017-11-19T20:00:02.148Z,29.30
2017-11-19T20:02:29.832Z,29.20
2017-11-19T20:04:57.428Z,29.40
2017-11-19T20:07:25.887Z,29.50
2017-11-19T20:09:53.467Z,29.50
2017-11-19T20:12:21.048Z,29.40
2017-11-19T20:14:48.661Z,29.50
2017-11-19T20:17:16.263Z,29.60
2017-11-19T20:19:44.898Z,29.40
2017-11-19T20:22:12.507Z,29.40
2017-11-19T20:24:40.149Z,29.30
2017-11-19T20:27:09.258Z,29.20
2017-11-19T20:29:37.670Z,29.40
2017-11-19T20:32:05.285Z,29.40
2017-11-19T20:34:32.914Z,29.40
2017-11-19T20:37:00.979Z,29.30
2017-11-19T20:39:28.561Z,29.30
2017-11-19T20:41:56.169Z,29.50
2017-11-19T20:44:23.808Z,29.50
2017-11-19T20:46:52.186Z,29.30
2017-11-19T20:49:19.804Z,29.30
2017-11-19T20:51:47.480Z,29.20
2017-11-19T20:54:15.132Z,29.30
2017-11-19T20:56:43.656Z,29.30
2017-11-19T20:59:12.040Z,29.10
2017-11-19T21:01:40.458Z,29.10
2017-11-19T21:04:08.044Z,29.20
2017-11-19T21:06:36.538Z,29.30
2017-11-19T21:09:04.156Z,29.20
2017-11-19T21:11:31.723Z,29.30
2017-11-19T21:13:59.377Z,29.40
2017-11-19T21:16:26.987Z,29.20
2017-11-19T21:18:54.726Z,29.30
2017-11-19T21:21:22.331Z,29.30
2017-11-19T21:23:50.718Z,29.20
2017-11-19T21:26:19.542Z,29.10
2017-11-19T21:28:47.144Z,29.10
2017-11-19T21:31:14.760Z,29.20
2017-11-19T21:33:42.332Z,29.20
2017-11-19T21:36:09.921Z,29.20
2017-11-19T21:38:37.510Z,29.20
2017-11-19T21:41:05.861Z,29.10
2017-11-19T21:43:34.206Z,29.00
2017-11-19T21:46:01.819Z,29.00
2017-11-19T21:48:29.504Z,29.20
2017-11-19T21:50:57.276Z,29.10
2017-11-19T21:53:24.845Z,29.00
2017-11-19T21:55:52.420Z,28.70
2017-11-19T21:58:20.040Z,28.60
2017-11-19T22:00:47.656Z,28.70
2017-11-19T22:03:15.305Z,28.60
2017-11-19T22:05:42.869Z,28.70
2017-11-19T22:08:10.481Z,28.70
2017-11-19T22:10:38.061Z,28.70
2017-11-19T22:13:05.622Z,28.70
2017-11-19T22:15:33.205Z,28.60
2017-11-19T22:18:00.751Z,28.60
2017-11-19T22:20:28.377Z,28.60
2017-11-19T22:22:56.911Z,28.70
2017-11-19T22:25:24.480Z,28.60
2017-11-19T22:27:52.075Z,28.70
2017-11-19T22:30:20.383Z,28.60
2017-11-19T22:32:47.962Z,28.60
2017-11-19T22:35:15.669Z,28.80
2017-11-19T22:37:44.018Z,28.70
2017-11-19T22:40:11.606Z,28.70
2017-11-19T22:42:39.942Z,28.70
2017-11-19T22:45:07.541Z,28.80
2017-11-19T22:47:35.142Z,28.80
2017-11-19T22:50:02.710Z,28.80
2017-11-19T22:52:30.321Z,29.00
2017-11-19T22:54:58.645Z,28.90
2017-11-19T22:57:26.306Z,28.90
2017-11-19T22:59:53.899Z,29.10
2017-11-19T23:02:21.431Z,28.90
2017-11-19T23:04:49.023Z,29.00
2017-11-19T23:07:16.631Z,29.10
2017-11-19T23:09:44.265Z,29.10
2017-11-19T23:12:12.595Z,29.00
2017-11-19T23:14:40.159Z,29.10
2017-11-19T23:17:07.740Z,29.10
2017-11-19T23:19:36.827Z,29.00
2017-11-19T23:22:04.389Z,29.00
2017-11-19T23:24:32.012Z,29.10
2017-11-19T23:26:59.600Z,29.20
2017-11-19T23:29:27.233Z,29.00
2017-11-19T23:31:54.817Z,29.20
2017-11-19T23:34:22.415Z,29.20
2017-11-19T23:36:50.744Z,29.70
2017-11-19T23:39:18.308Z,29.20
2017-11-19T23:41:45.878Z,29.20
2017-11-19T23:44:13.426Z,29.20
2017-11-19T23:46:41.031Z,29.20
2017-11-19T23:49:09.400Z,29.10
2017-11-19T23:51:38.458Z,29.10
2017-11-19T23:54:06.073Z,29.10
2017-11-19T23:56:34.595Z,29.30
2017-11-19T23:59:02.139Z,29.30
